Terminal Aerodrome Forecast
Issued by NWS Charleston, WV

Current Version | Previous Version | Text Only | Print | Product List | Glossary Off
Versions: 1 2 3 4 5 6 7 8 9 10 11 12 13 14 15 16 17 18 19 20 21

464
FTUS41 KRLX 241508 AAA
TAFEKN
TAF AMD
KEKN 241508Z 2415/2512 29009KT P6SM FEW045
     FM250800 00000KT 5SM BR SKC
     FM250900 00000KT 2SM BR SKC=

USA.gov is the U.S. government's official web portal to all federal, state and local government web resources and services.